sensor_id;sensor_type;location;lat;lon;timestamp;P1;durP1;ratioP1;P2;durP2;ratioP2
79204;SDS011;68632;47.512;19.104;2023-05-07T00:00:58;14.77;;;11.43;;
79204;SDS011;68632;47.512;19.104;2023-05-07T00:02:01;16.88;;;12.60;;
79204;SDS011;68632;47.512;19.104;2023-05-07T00:03:05;13.50;;;12.10;;
79204;SDS011;68632;47.512;19.104;2023-05-07T00:04:09;13.48;;;11.50;;
79204;SDS011;68632;47.512;19.104;2023-05-07T00:05:11;13.80;;;11.23;;
79204;SDS011;68632;47.512;19.104;2023-05-07T00:06:14;14.27;;;11.95;;
79204;SDS011;68632;47.512;19.104;2023-05-07T00:07:16;14.07;;;11.70;;
79204;SDS011;68632;47.512;19.104;2023-05-07T00:08:18;15.55;;;12.18;;
79204;SDS011;68632;47.512;19.104;2023-05-07T00:09:22;13.68;;;10.95;;
79204;SDS011;68632;47.512;19.104;2023-05-07T00:10:24;14.27;;;12.75;;
79204;SDS011;68632;47.512;19.104;2023-05-07T00:11:27;13.13;;;11.73;;
79204;SDS011;68632;47.512;19.104;2023-05-07T00:12:29;13.27;;;11.35;;
79204;SDS011;68632;47.512;19.104;2023-05-07T00:13:33;13.90;;;11.13;;
79204;SDS011;68632;47.512;19.104;2023-05-07T00:14:37;13.93;;;12.23;;
79204;SDS011;68632;47.512;19.104;2023-05-07T00:15:39;14.27;;;11.77;;
79204;SDS011;68632;47.512;19.104;2023-05-07T00:16:41;14.52;;;12.93;;
79204;SDS011;68632;47.512;19.104;2023-05-07T00:17:43;14.13;;;11.65;;
79204;SDS011;68632;47.512;19.104;2023-05-07T00:18:46;14.50;;;12.82;;
79204;SDS011;68632;47.512;19.104;2023-05-07T00:19:48;15.30;;;11.95;;
79204;SDS011;68632;47.512;19.104;2023-05-07T00:20:50;17.50;;;13.30;;
79204;SDS011;68632;47.512;19.104;2023-05-07T00:21:52;16.85;;;13.95;;
79204;SDS011;68632;47.512;19.104;2023-05-07T00:22:55;17.65;;;14.07;;
79204;SDS011;68632;47.512;19.104;2023-05-07T00:23:57;17.52;;;14.68;;
79204;SDS011;68632;47.512;19.104;2023-05-07T00:25:00;17.08;;;14.75;;
79204;SDS011;68632;47.512;19.104;2023-05-07T00:26:02;19.27;;;14.82;;
79204;SDS011;68632;47.512;19.104;2023-05-07T00:27:05;19.75;;;15.95;;
79204;SDS011;68632;47.512;19.104;2023-05-07T00:28:07;19.73;;;15.30;;
79204;SDS011;68632;47.512;19.104;2023-05-07T00:29:09;22.98;;;16.00;;
79204;SDS011;68632;47.512;19.104;2023-05-07T00:30:11;19.33;;;15.70;;
79204;SDS011;68632;47.512;19.104;2023-05-07T00:31:14;20.27;;;16.33;;
79204;SDS011;68632;47.512;19.104;2023-05-07T00:32:16;21.52;;;16.35;;
79204;SDS011;68632;47.512;19.104;2023-05-07T00:33:18;20.23;;;15.98;;
79204;SDS011;68632;47.512;19.104;2023-05-07T00:34:22;20.00;;;15.23;;
79204;SDS011;68632;47.512;19.104;2023-05-07T00:35:24;22.08;;;17.80;;
79204;SDS011;68632;47.512;19.104;2023-05-07T00:36:26;18.27;;;15.15;;
79204;SDS011;68632;47.512;19.104;2023-05-07T00:37:28;19.17;;;17.05;;
79204;SDS011;68632;47.512;19.104;2023-05-07T00:38:30;20.25;;;16.95;;
79204;SDS011;68632;47.512;19.104;2023-05-07T00:39:33;19.85;;;16.58;;
79204;SDS011;68632;47.512;19.104;2023-05-07T00:40:35;21.30;;;17.85;;
79204;SDS011;68632;47.512;19.104;2023-05-07T00:41:37;23.33;;;16.48;;
79204;SDS011;68632;47.512;19.104;2023-05-07T00:42:39;20.27;;;16.95;;
79204;SDS011;68632;47.512;19.104;2023-05-07T00:43:41;23.50;;;17.08;;
79204;SDS011;68632;47.512;19.104;2023-05-07T00:44:44;21.95;;;17.77;;
79204;SDS011;68632;47.512;19.104;2023-05-07T00:45:46;18.85;;;16.25;;
79204;SDS011;68632;47.512;19.104;2023-05-07T00:46:48;22.52;;;17.50;;
79204;SDS011;68632;47.512;19.104;2023-05-07T00:47:53;20.75;;;17.42;;
79204;SDS011;68632;47.512;19.104;2023-05-07T00:48:56;22.85;;;18.15;;
79204;SDS011;68632;47.512;19.104;2023-05-07T00:49:58;22.27;;;17.85;;
79204;SDS011;68632;47.512;19.104;2023-05-07T00:51:00;21.63;;;18.25;;
79204;SDS011;68632;47.512;19.104;2023-05-07T00:52:03;22.08;;;17.33;;
79204;SDS011;68632;47.512;19.104;2023-05-07T00:53:05;21.40;;;16.33;;
79204;SDS011;68632;47.512;19.104;2023-05-07T00:54:08;22.25;;;17.42;;
79204;SDS011;68632;47.512;19.104;2023-05-07T00:55:10;20.55;;;16.45;;
79204;SDS011;68632;47.512;19.104;2023-05-07T00:56:13;19.10;;;17.02;;
79204;SDS011;68632;47.512;19.104;2023-05-07T00:57:16;22.65;;;18.60;;
79204;SDS011;68632;47.512;19.104;2023-05-07T00:58:18;24.48;;;18.90;;
79204;SDS011;68632;47.512;19.104;2023-05-07T00:59:21;24.33;;;19.23;;
79204;SDS011;68632;47.512;19.104;2023-05-07T01:00:23;28.38;;;18.92;;
79204;SDS011;68632;47.512;19.104;2023-05-07T01:01:27;24.55;;;19.48;;
79204;SDS011;68632;47.512;19.104;2023-05-07T01:02:29;24.23;;;19.67;;
79204;SDS011;68632;47.512;19.104;2023-05-07T01:03:31;22.70;;;19.02;;
79204;SDS011;68632;47.512;19.104;2023-05-07T01:04:33;22.63;;;18.17;;
79204;SDS011;68632;47.512;19.104;2023-05-07T01:05:36;22.85;;;18.70;;
79204;SDS011;68632;47.512;19.104;2023-05-07T01:06:39;22.83;;;18.13;;
79204;SDS011;68632;47.512;19.104;2023-05-07T01:07:42;25.38;;;19.08;;
79204;SDS011;68632;47.512;19.104;2023-05-07T01:08:44;24.67;;;18.73;;
79204;SDS011;68632;47.512;19.104;2023-05-07T01:09:46;22.65;;;18.08;;
79204;SDS011;68632;47.512;19.104;2023-05-07T01:10:49;24.23;;;18.92;;
79204;SDS011;68632;47.512;19.104;2023-05-07T01:11:51;23.85;;;16.88;;
79204;SDS011;68632;47.512;19.104;2023-05-07T01:12:54;23.35;;;19.73;;
79204;SDS011;68632;47.512;19.104;2023-05-07T01:13:56;27.30;;;19.38;;
79204;SDS011;68632;47.512;19.104;2023-05-07T01:15:00;25.23;;;18.38;;
79204;SDS011;68632;47.512;19.104;2023-05-07T01:16:03;22.42;;;17.42;;
79204;SDS011;68632;47.512;19.104;2023-05-07T01:17:06;21.05;;;18.70;;
79204;SDS011;68632;47.512;19.104;2023-05-07T01:18:08;22.17;;;18.52;;
79204;SDS011;68632;47.512;19.104;2023-05-07T01:19:11;25.50;;;18.33;;
79204;SDS011;68632;47.512;19.104;2023-05-07T01:20:17;25.77;;;20.20;;
79204;SDS011;68632;47.512;19.104;2023-05-07T01:21:19;23.45;;;18.08;;
79204;SDS011;68632;47.512;19.104;2023-05-07T01:22:29;23.65;;;18.33;;
79204;SDS011;68632;47.512;19.104;2023-05-07T01:23:33;26.08;;;18.75;;
79204;SDS011;68632;47.512;19.104;2023-05-07T01:24:37;25.48;;;19.95;;
79204;SDS011;68632;47.512;19.104;2023-05-07T01:25:39;25.35;;;20.20;;
79204;SDS011;68632;47.512;19.104;2023-05-07T01:26:43;23.27;;;19.48;;
79204;SDS011;68632;47.512;19.104;2023-05-07T01:27:45;23.92;;;19.40;;
79204;SDS011;68632;47.512;19.104;2023-05-07T01:28:48;25.08;;;20.52;;
79204;SDS011;68632;47.512;19.104;2023-05-07T01:29:50;23.67;;;20.20;;
79204;SDS011;68632;47.512;19.104;2023-05-07T01:30:53;24.80;;;20.60;;
79204;SDS011;68632;47.512;19.104;2023-05-07T01:31:58;24.95;;;18.92;;
79204;SDS011;68632;47.512;19.104;2023-05-07T01:33:03;28.48;;;21.48;;
79204;SDS011;68632;47.512;19.104;2023-05-07T01:34:08;27.80;;;21.63;;
79204;SDS011;68632;47.512;19.104;2023-05-07T01:35:12;23.90;;;20.13;;
79204;SDS011;68632;47.512;19.104;2023-05-07T01:36:18;26.83;;;20.15;;
79204;SDS011;68632;47.512;19.104;2023-05-07T01:37:21;25.33;;;20.38;;
79204;SDS011;68632;47.512;19.104;2023-05-07T01:38:24;24.33;;;20.20;;
79204;SDS011;68632;47.512;19.104;2023-05-07T01:39:27;28.40;;;21.65;;
79204;SDS011;68632;47.512;19.104;2023-05-07T01:40:30;27.77;;;22.55;;
79204;SDS011;68632;47.512;19.104;2023-05-07T01:41:32;27.08;;;21.20;;
79204;SDS011;68632;47.512;19.104;2023-05-07T01:42:34;26.30;;;20.80;;
79204;SDS011;68632;47.512;19.104;2023-05-07T01:43:37;25.65;;;20.85;;
79204;SDS011;68632;47.512;19.104;2023-05-07T01:44:39;27.38;;;21.38;;
79204;SDS011;68632;47.512;19.104;2023-05-07T01:45:41;24.23;;;20.30;;
79204;SDS011;68632;47.512;19.104;2023-05-07T01:46:43;24.95;;;19.42;;
79204;SDS011;68632;47.512;19.104;2023-05-07T01:47:46;25.55;;;18.83;;
79204;SDS011;68632;47.512;19.104;2023-05-07T01:48:49;23.52;;;19.83;;
79204;SDS011;68632;47.512;19.104;2023-05-07T01:49:51;25.23;;;17.52;;
79204;SDS011;68632;47.512;19.104;2023-05-07T01:50:54;21.92;;;18.55;;
79204;SDS011;68632;47.512;19.104;2023-05-07T01:51:57;25.25;;;19.60;;
79204;SDS011;68632;47.512;19.104;2023-05-07T01:53:00;24.65;;;18.77;;
79204;SDS011;68632;47.512;19.104;2023-05-07T01:54:03;22.13;;;19.13;;
79204;SDS011;68632;47.512;19.104;2023-05-07T01:55:06;23.08;;;17.55;;
79204;SDS011;68632;47.512;19.104;2023-05-07T01:56:09;26.58;;;19.52;;
79204;SDS011;68632;47.512;19.104;2023-05-07T01:57:11;23.42;;;19.02;;
79204;SDS011;68632;47.512;19.104;2023-05-07T01:58:13;27.77;;;18.83;;
79204;SDS011;68632;47.512;19.104;2023-05-07T01:59:15;23.50;;;19.35;;
79204;SDS011;68632;47.512;19.104;2023-05-07T02:00:17;24.92;;;18.88;;
79204;SDS011;68632;47.512;19.104;2023-05-07T02:01:20;22.80;;;16.95;;
79204;SDS011;68632;47.512;19.104;2023-05-07T02:02:23;24.25;;;18.83;;
79204;SDS011;68632;47.512;19.104;2023-05-07T02:03:25;24.45;;;18.85;;
79204;SDS011;68632;47.512;19.104;2023-05-07T02:04:28;22.05;;;18.05;;
79204;SDS011;68632;47.512;19.104;2023-05-07T02:05:30;25.85;;;19.58;;
79204;SDS011;68632;47.512;19.104;2023-05-07T02:06:32;22.98;;;19.13;;
79204;SDS011;68632;47.512;19.104;2023-05-07T02:07:34;21.00;;;17.70;;
79204;SDS011;68632;47.512;19.104;2023-05-07T02:08:36;23.88;;;18.83;;
79204;SDS011;68632;47.512;19.104;2023-05-07T02:09:39;21.83;;;18.73;;
79204;SDS011;68632;47.512;19.104;2023-05-07T02:10:41;23.15;;;19.58;;
79204;SDS011;68632;47.512;19.104;2023-05-07T02:11:43;23.05;;;19.25;;
79204;SDS011;68632;47.512;19.104;2023-05-07T02:12:45;23.45;;;19.25;;
79204;SDS011;68632;47.512;19.104;2023-05-07T02:13:47;24.50;;;19.50;;
79204;SDS011;68632;47.512;19.104;2023-05-07T02:14:49;24.90;;;19.13;;
79204;SDS011;68632;47.512;19.104;2023-05-07T02:15:52;22.75;;;18.95;;
79204;SDS011;68632;47.512;19.104;2023-05-07T02:16:55;21.70;;;18.95;;
79204;SDS011;68632;47.512;19.104;2023-05-07T02:18:04;23.40;;;19.88;;
79204;SDS011;68632;47.512;19.104;2023-05-07T02:19:10;24.23;;;19.50;;
79204;SDS011;68632;47.512;19.104;2023-05-07T02:20:12;25.00;;;19.65;;
79204;SDS011;68632;47.512;19.104;2023-05-07T02:21:15;21.38;;;17.70;;
79204;SDS011;68632;47.512;19.104;2023-05-07T02:22:17;23.10;;;19.60;;
79204;SDS011;68632;47.512;19.104;2023-05-07T02:23:19;24.90;;;18.83;;
79204;SDS011;68632;47.512;19.104;2023-05-07T02:24:21;24.70;;;19.38;;
79204;SDS011;68632;47.512;19.104;2023-05-07T02:25:24;24.15;;;19.23;;
79204;SDS011;68632;47.512;19.104;2023-05-07T02:26:26;22.02;;;19.15;;
79204;SDS011;68632;47.512;19.104;2023-05-07T02:27:28;26.83;;;19.73;;
79204;SDS011;68632;47.512;19.104;2023-05-07T02:28:30;26.55;;;19.27;;
79204;SDS011;68632;47.512;19.104;2023-05-07T02:29:32;22.33;;;18.17;;
79204;SDS011;68632;47.512;19.104;2023-05-07T02:30:35;25.05;;;20.48;;
79204;SDS011;68632;47.512;19.104;2023-05-07T02:31:38;21.08;;;18.05;;
79204;SDS011;68632;47.512;19.104;2023-05-07T02:32:40;22.48;;;18.35;;
79204;SDS011;68632;47.512;19.104;2023-05-07T02:33:42;26.67;;;19.13;;
79204;SDS011;68632;47.512;19.104;2023-05-07T02:34:45;28.33;;;18.98;;
79204;SDS011;68632;47.512;19.104;2023-05-07T02:35:47;22.52;;;17.80;;
79204;SDS011;68632;47.512;19.104;2023-05-07T02:36:49;24.27;;;19.10;;
79204;SDS011;68632;47.512;19.104;2023-05-07T02:37:51;25.17;;;18.95;;
79204;SDS011;68632;47.512;19.104;2023-05-07T02:38:53;24.20;;;19.17;;
79204;SDS011;68632;47.512;19.104;2023-05-07T02:39:56;21.73;;;17.98;;
79204;SDS011;68632;47.512;19.104;2023-05-07T02:40:58;25.83;;;19.83;;
79204;SDS011;68632;47.512;19.104;2023-05-07T02:42:00;21.45;;;17.50;;
79204;SDS011;68632;47.512;19.104;2023-05-07T02:43:03;22.80;;;18.95;;
79204;SDS011;68632;47.512;19.104;2023-05-07T02:44:05;22.58;;;17.60;;
79204;SDS011;68632;47.512;19.104;2023-05-07T02:45:07;23.83;;;17.52;;
79204;SDS011;68632;47.512;19.104;2023-05-07T02:46:10;22.27;;;18.27;;
79204;SDS011;68632;47.512;19.104;2023-05-07T02:47:13;23.58;;;17.80;;
79204;SDS011;68632;47.512;19.104;2023-05-07T02:48:16;20.13;;;17.17;;
79204;SDS011;68632;47.512;19.104;2023-05-07T02:49:18;23.45;;;17.25;;
79204;SDS011;68632;47.512;19.104;2023-05-07T02:50:21;22.98;;;17.98;;
79204;SDS011;68632;47.512;19.104;2023-05-07T02:51:23;24.13;;;18.48;;
79204;SDS011;68632;47.512;19.104;2023-05-07T02:52:26;20.90;;;17.70;;
79204;SDS011;68632;47.512;19.104;2023-05-07T02:53:29;23.75;;;18.35;;
79204;SDS011;68632;47.512;19.104;2023-05-07T02:54:31;21.30;;;19.00;;
79204;SDS011;68632;47.512;19.104;2023-05-07T02:55:33;23.90;;;18.23;;
79204;SDS011;68632;47.512;19.104;2023-05-07T02:56:35;23.83;;;18.35;;
79204;SDS011;68632;47.512;19.104;2023-05-07T02:57:37;23.60;;;18.38;;
79204;SDS011;68632;47.512;19.104;2023-05-07T02:58:40;22.08;;;19.08;;
79204;SDS011;68632;47.512;19.104;2023-05-07T02:59:42;22.27;;;17.83;;
79204;SDS011;68632;47.512;19.104;2023-05-07T03:00:45;24.48;;;19.02;;
79204;SDS011;68632;47.512;19.104;2023-05-07T03:01:47;21.95;;;17.58;;
79204;SDS011;68632;47.512;19.104;2023-05-07T03:02:50;24.58;;;20.05;;
79204;SDS011;68632;47.512;19.104;2023-05-07T03:03:52;23.98;;;19.45;;
79204;SDS011;68632;47.512;19.104;2023-05-07T03:04:54;22.48;;;19.75;;
79204;SDS011;68632;47.512;19.104;2023-05-07T03:05:57;21.38;;;18.33;;
79204;SDS011;68632;47.512;19.104;2023-05-07T03:06:59;29.08;;;20.33;;
79204;SDS011;68632;47.512;19.104;2023-05-07T03:08:01;24.13;;;19.48;;
79204;SDS011;68632;47.512;19.104;2023-05-07T03:09:03;24.25;;;19.13;;
79204;SDS011;68632;47.512;19.104;2023-05-07T03:10:05;23.13;;;18.17;;
79204;SDS011;68632;47.512;19.104;2023-05-07T03:11:08;24.27;;;18.58;;
79204;SDS011;68632;47.512;19.104;2023-05-07T03:12:10;21.15;;;16.88;;
79204;SDS011;68632;47.512;19.104;2023-05-07T03:13:12;22.48;;;18.42;;
79204;SDS011;68632;47.512;19.104;2023-05-07T03:14:14;23.35;;;19.45;;
79204;SDS011;68632;47.512;19.104;2023-05-07T03:15:16;24.95;;;19.83;;
79204;SDS011;68632;47.512;19.104;2023-05-07T03:16:18;23.98;;;20.02;;
79204;SDS011;68632;47.512;19.104;2023-05-07T03:17:21;23.92;;;19.98;;
79204;SDS011;68632;47.512;19.104;2023-05-07T03:18:23;22.13;;;18.58;;
79204;SDS011;68632;47.512;19.104;2023-05-07T03:19:26;26.83;;;19.42;;
79204;SDS011;68632;47.512;19.104;2023-05-07T03:20:28;23.17;;;19.52;;
79204;SDS011;68632;47.512;19.104;2023-05-07T03:21:30;22.42;;;18.98;;
79204;SDS011;68632;47.512;19.104;2023-05-07T03:22:35;23.17;;;19.55;;
79204;SDS011;68632;47.512;19.104;2023-05-07T03:23:37;27.65;;;19.98;;
79204;SDS011;68632;47.512;19.104;2023-05-07T03:24:40;26.33;;;19.55;;
79204;SDS011;68632;47.512;19.104;2023-05-07T03:25:42;23.65;;;19.70;;
79204;SDS011;68632;47.512;19.104;2023-05-07T03:26:44;26.65;;;20.30;;
79204;SDS011;68632;47.512;19.104;2023-05-07T03:27:46;23.08;;;18.95;;
79204;SDS011;68632;47.512;19.104;2023-05-07T03:28:48;23.73;;;20.42;;
79204;SDS011;68632;47.512;19.104;2023-05-07T03:29:50;22.10;;;18.65;;
79204;SDS011;68632;47.512;19.104;2023-05-07T03:30:52;23.70;;;19.35;;
79204;SDS011;68632;47.512;19.104;2023-05-07T03:31:55;22.83;;;19.02;;
79204;SDS011;68632;47.512;19.104;2023-05-07T03:32:57;23.58;;;19.30;;
79204;SDS011;68632;47.512;19.104;2023-05-07T03:33:59;21.95;;;17.70;;
79204;SDS011;68632;47.512;19.104;2023-05-07T03:35:01;22.75;;;19.02;;
79204;SDS011;68632;47.512;19.104;2023-05-07T03:36:04;23.88;;;19.10;;
79204;SDS011;68632;47.512;19.104;2023-05-07T03:37:06;23.70;;;19.08;;
79204;SDS011;68632;47.512;19.104;2023-05-07T03:38:08;23.75;;;19.13;;
79204;SDS011;68632;47.512;19.104;2023-05-07T03:39:10;23.10;;;17.90;;
79204;SDS011;68632;47.512;19.104;2023-05-07T03:40:13;22.08;;;17.63;;
79204;SDS011;68632;47.512;19.104;2023-05-07T03:41:15;19.27;;;15.82;;
79204;SDS011;68632;47.512;19.104;2023-05-07T03:42:17;19.52;;;15.45;;
79204;SDS011;68632;47.512;19.104;2023-05-07T03:43:19;19.98;;;15.73;;
79204;SDS011;68632;47.512;19.104;2023-05-07T03:44:22;17.63;;;14.40;;
79204;SDS011;68632;47.512;19.104;2023-05-07T03:45:24;22.25;;;15.15;;
79204;SDS011;68632;47.512;19.104;2023-05-07T03:46:26;17.27;;;13.73;;
79204;SDS011;68632;47.512;19.104;2023-05-07T03:47:30;15.85;;;13.50;;
79204;SDS011;68632;47.512;19.104;2023-05-07T03:48:32;16.40;;;13.65;;
79204;SDS011;68632;47.512;19.104;2023-05-07T03:49:34;19.33;;;14.10;;
79204;SDS011;68632;47.512;19.104;2023-05-07T03:50:37;17.00;;;13.88;;
79204;SDS011;68632;47.512;19.104;2023-05-07T03:51:39;15.13;;;12.50;;
79204;SDS011;68632;47.512;19.104;2023-05-07T03:52:42;16.05;;;13.75;;
79204;SDS011;68632;47.512;19.104;2023-05-07T03:53:44;15.98;;;13.88;;
79204;SDS011;68632;47.512;19.104;2023-05-07T03:54:46;17.85;;;13.65;;
79204;SDS011;68632;47.512;19.104;2023-05-07T03:55:48;16.65;;;13.27;;
79204;SDS011;68632;47.512;19.104;2023-05-07T03:56:50;17.08;;;13.27;;
79204;SDS011;68632;47.512;19.104;2023-05-07T03:57:53;17.23;;;13.40;;
79204;SDS011;68632;47.512;19.104;2023-05-07T03:58:55;17.45;;;14.02;;
79204;SDS011;68632;47.512;19.104;2023-05-07T03:59:57;17.52;;;14.48;;
79204;SDS011;68632;47.512;19.104;2023-05-07T04:00:59;16.88;;;14.27;;
79204;SDS011;68632;47.512;19.104;2023-05-07T04:02:01;16.70;;;13.65;;
79204;SDS011;68632;47.512;19.104;2023-05-07T04:03:06;18.33;;;14.05;;
79204;SDS011;68632;47.512;19.104;2023-05-07T04:04:08;17.70;;;14.60;;
79204;SDS011;68632;47.512;19.104;2023-05-07T04:05:11;15.77;;;13.80;;
79204;SDS011;68632;47.512;19.104;2023-05-07T04:06:15;17.17;;;13.48;;
79204;SDS011;68632;47.512;19.104;2023-05-07T04:07:19;15.82;;;13.75;;
79204;SDS011;68632;47.512;19.104;2023-05-07T04:08:21;15.95;;;12.55;;
79204;SDS011;68632;47.512;19.104;2023-05-07T04:09:23;14.95;;;12.63;;
79204;SDS011;68632;47.512;19.104;2023-05-07T04:10:25;14.93;;;12.73;;
79204;SDS011;68632;47.512;19.104;2023-05-07T04:11:27;15.07;;;12.25;;
79204;SDS011;68632;47.512;19.104;2023-05-07T04:12:30;17.23;;;13.07;;
79204;SDS011;68632;47.512;19.104;2023-05-07T04:13:32;16.35;;;12.88;;
79204;SDS011;68632;47.512;19.104;2023-05-07T04:14:34;19.17;;;13.20;;
79204;SDS011;68632;47.512;19.104;2023-05-07T04:15:36;17.80;;;13.82;;
79204;SDS011;68632;47.512;19.104;2023-05-07T04:16:38;15.40;;;13.38;;
79204;SDS011;68632;47.512;19.104;2023-05-07T04:17:40;14.48;;;12.75;;
79204;SDS011;68632;47.512;19.104;2023-05-07T04:18:43;15.43;;;13.80;;
79204;SDS011;68632;47.512;19.104;2023-05-07T04:19:45;16.85;;;13.93;;
79204;SDS011;68632;47.512;19.104;2023-05-07T04:20:48;17.08;;;13.52;;
79204;SDS011;68632;47.512;19.104;2023-05-07T04:21:53;15.07;;;13.00;;
79204;SDS011;68632;47.512;19.104;2023-05-07T04:22:56;14.95;;;12.88;;
79204;SDS011;68632;47.512;19.104;2023-05-07T04:23:58;18.10;;;13.02;;
79204;SDS011;68632;47.512;19.104;2023-05-07T04:25:00;17.25;;;13.07;;
79204;SDS011;68632;47.512;19.104;2023-05-07T04:26:02;18.00;;;12.85;;
79204;SDS011;68632;47.512;19.104;2023-05-07T04:27:05;16.05;;;13.82;;
79204;SDS011;68632;47.512;19.104;2023-05-07T04:28:08;18.60;;;12.50;;
79204;SDS011;68632;47.512;19.104;2023-05-07T04:29:10;15.80;;;13.40;;
79204;SDS011;68632;47.512;19.104;2023-05-07T04:30:13;14.98;;;13.38;;
79204;SDS011;68632;47.512;19.104;2023-05-07T04:31:15;15.70;;;13.93;;
79204;SDS011;68632;47.512;19.104;2023-05-07T04:32:18;16.10;;;12.77;;
79204;SDS011;68632;47.512;19.104;2023-05-07T04:33:20;13.88;;;12.25;;
79204;SDS011;68632;47.512;19.104;2023-05-07T04:34:22;15.57;;;13.40;;
79204;SDS011;68632;47.512;19.104;2023-05-07T04:35:24;16.10;;;12.70;;
79204;SDS011;68632;47.512;19.104;2023-05-07T04:36:27;18.90;;;13.52;;
79204;SDS011;68632;47.512;19.104;2023-05-07T04:37:31;17.80;;;12.90;;
79204;SDS011;68632;47.512;19.104;2023-05-07T04:38:34;15.68;;;13.25;;
79204;SDS011;68632;47.512;19.104;2023-05-07T04:39:36;14.60;;;12.70;;
79204;SDS011;68632;47.512;19.104;2023-05-07T04:40:38;15.35;;;13.10;;
79204;SDS011;68632;47.512;19.104;2023-05-07T04:41:40;14.70;;;13.07;;
79204;SDS011;68632;47.512;19.104;2023-05-07T04:42:43;15.55;;;12.63;;
79204;SDS011;68632;47.512;19.104;2023-05-07T04:43:45;15.48;;;13.40;;
79204;SDS011;68632;47.512;19.104;2023-05-07T04:44:47;15.80;;;13.07;;
79204;SDS011;68632;47.512;19.104;2023-05-07T04:45:50;18.33;;;12.98;;
79204;SDS011;68632;47.512;19.104;2023-05-07T04:46:55;16.17;;;12.52;;
79204;SDS011;68632;47.512;19.104;2023-05-07T04:47:57;15.60;;;12.95;;
79204;SDS011;68632;47.512;19.104;2023-05-07T04:48:59;14.95;;;13.38;;
79204;SDS011;68632;47.512;19.104;2023-05-07T04:50:01;14.18;;;12.57;;
79204;SDS011;68632;47.512;19.104;2023-05-07T04:51:03;16.77;;;12.63;;
79204;SDS011;68632;47.512;19.104;2023-05-07T04:52:05;15.32;;;12.40;;
79204;SDS011;68632;47.512;19.104;2023-05-07T04:53:08;16.92;;;13.85;;
79204;SDS011;68632;47.512;19.104;2023-05-07T04:54:10;17.50;;;12.18;;
79204;SDS011;68632;47.512;19.104;2023-05-07T04:55:12;16.08;;;13.25;;
79204;SDS011;68632;47.512;19.104;2023-05-07T04:56:14;16.13;;;13.00;;
79204;SDS011;68632;47.512;19.104;2023-05-07T04:57:16;17.20;;;13.25;;
79204;SDS011;68632;47.512;19.104;2023-05-07T04:58:22;17.30;;;12.75;;
79204;SDS011;68632;47.512;19.104;2023-05-07T04:59:24;14.10;;;11.85;;
79204;SDS011;68632;47.512;19.104;2023-05-07T05:00:26;18.75;;;13.35;;
79204;SDS011;68632;47.512;19.104;2023-05-07T05:01:28;14.88;;;13.10;;
79204;SDS011;68632;47.512;19.104;2023-05-07T05:02:30;14.38;;;12.88;;
79204;SDS011;68632;47.512;19.104;2023-05-07T05:03:32;16.23;;;12.73;;
79204;SDS011;68632;47.512;19.104;2023-05-07T05:04:35;14.68;;;12.65;;
79204;SDS011;68632;47.512;19.104;2023-05-07T05:05:37;14.73;;;12.23;;
79204;SDS011;68632;47.512;19.104;2023-05-07T05:06:39;16.35;;;12.48;;
79204;SDS011;68632;47.512;19.104;2023-05-07T05:07:41;14.70;;;13.20;;
79204;SDS011;68632;47.512;19.104;2023-05-07T05:08:44;16.48;;;12.48;;
79204;SDS011;68632;47.512;19.104;2023-05-07T05:09:46;14.90;;;12.30;;
79204;SDS011;68632;47.512;19.104;2023-05-07T05:10:48;16.92;;;12.90;;
79204;SDS011;68632;47.512;19.104;2023-05-07T05:11:51;14.90;;;12.68;;
79204;SDS011;68632;47.512;19.104;2023-05-07T05:12:53;15.70;;;11.63;;
79204;SDS011;68632;47.512;19.104;2023-05-07T05:13:58;14.60;;;12.73;;
79204;SDS011;68632;47.512;19.104;2023-05-07T05:15:01;16.45;;;11.77;;
79204;SDS011;68632;47.512;19.104;2023-05-07T05:16:03;13.35;;;11.80;;
79204;SDS011;68632;47.512;19.104;2023-05-07T05:17:05;14.07;;;11.75;;
79204;SDS011;68632;47.512;19.104;2023-05-07T05:18:08;12.52;;;11.23;;
79204;SDS011;68632;47.512;19.104;2023-05-07T05:19:10;14.07;;;11.85;;
79204;SDS011;68632;47.512;19.104;2023-05-07T05:20:12;15.02;;;12.05;;
79204;SDS011;68632;47.512;19.104;2023-05-07T05:21:14;15.65;;;12.02;;
79204;SDS011;68632;47.512;19.104;2023-05-07T05:22:16;12.98;;;11.23;;
79204;SDS011;68632;47.512;19.104;2023-05-07T05:23:19;13.88;;;11.57;;
79204;SDS011;68632;47.512;19.104;2023-05-07T05:24:21;13.32;;;10.73;;
79204;SDS011;68632;47.512;19.104;2023-05-07T05:25:24;13.10;;;10.63;;
79204;SDS011;68632;47.512;19.104;2023-05-07T05:26:26;16.17;;;12.73;;
79204;SDS011;68632;47.512;19.104;2023-05-07T05:27:28;14.48;;;11.98;;
79204;SDS011;68632;47.512;19.104;2023-05-07T05:28:30;16.42;;;11.50;;
79204;SDS011;68632;47.512;19.104;2023-05-07T05:29:32;17.88;;;13.55;;
79204;SDS011;68632;47.512;19.104;2023-05-07T05:30:35;15.48;;;13.77;;
79204;SDS011;68632;47.512;19.104;2023-05-07T05:31:37;16.60;;;13.55;;
79204;SDS011;68632;47.512;19.104;2023-05-07T05:32:39;19.70;;;14.50;;
79204;SDS011;68632;47.512;19.104;2023-05-07T05:33:41;17.23;;;14.88;;
79204;SDS011;68632;47.512;19.104;2023-05-07T05:34:44;18.27;;;15.63;;
79204;SDS011;68632;47.512;19.104;2023-05-07T05:35:46;19.02;;;15.73;;
79204;SDS011;68632;47.512;19.104;2023-05-07T05:36:48;19.13;;;15.82;;
79204;SDS011;68632;47.512;19.104;2023-05-07T05:37:50;20.83;;;15.65;;
79204;SDS011;68632;47.512;19.104;2023-05-07T05:38:52;19.75;;;17.10;;
79204;SDS011;68632;47.512;19.104;2023-05-07T05:39:55;20.10;;;17.30;;
79204;SDS011;68632;47.512;19.104;2023-05-07T05:40:57;20.10;;;17.35;;
79204;SDS011;68632;47.512;19.104;2023-05-07T05:41:59;21.85;;;17.65;;
79204;SDS011;68632;47.512;19.104;2023-05-07T05:43:01;21.17;;;17.10;;
79204;SDS011;68632;47.512;19.104;2023-05-07T05:44:03;22.38;;;17.83;;
79204;SDS011;68632;47.512;19.104;2023-05-07T05:45:05;20.55;;;18.30;;
79204;SDS011;68632;47.512;19.104;2023-05-07T05:46:08;19.75;;;16.65;;
79204;SDS011;68632;47.512;19.104;2023-05-07T05:47:13;22.30;;;18.70;;
79204;SDS011;68632;47.512;19.104;2023-05-07T05:48:15;23.85;;;21.27;;
79204;SDS011;68632;47.512;19.104;2023-05-07T05:49:18;24.48;;;21.33;;
79204;SDS011;68632;47.512;19.104;2023-05-07T05:50:20;24.20;;;20.48;;
79204;SDS011;68632;47.512;19.104;2023-05-07T05:51:22;26.17;;;20.23;;
79204;SDS011;68632;47.512;19.104;2023-05-07T05:52:25;23.40;;;20.92;;
79204;SDS011;68632;47.512;19.104;2023-05-07T05:53:27;23.55;;;19.45;;
79204;SDS011;68632;47.512;19.104;2023-05-07T05:54:29;24.63;;;19.50;;
79204;SDS011;68632;47.512;19.104;2023-05-07T05:55:31;25.60;;;19.05;;
79204;SDS011;68632;47.512;19.104;2023-05-07T05:56:34;20.02;;;17.73;;
79204;SDS011;68632;47.512;19.104;2023-05-07T05:57:36;21.13;;;18.83;;
79204;SDS011;68632;47.512;19.104;2023-05-07T05:58:38;19.23;;;17.08;;
79204;SDS011;68632;47.512;19.104;2023-05-07T05:59:40;22.05;;;16.65;;
79204;SDS011;68632;47.512;19.104;2023-05-07T06:00:43;23.98;;;14.85;;